WetterOnline ( https://www.wetteronline.ch )

Wetter aktuell Lüchow

Aktuelles Wetter: Lüchow (18m)

6-stündlich | Neueste Meldungen
Ortszeit Temperatur Wetter
Mo, 01.03. 1:00 4.5° C bedeckt
So, 28.02. 19:00 4.0° C leicht bewölkt
So, 28.02. 13:00 5.0° C bedeckt
So, 28.02. 7:00 1.6° C bedeckt
So, 28.02. 1:00 0.4° C wolkenlos
Sa, 27.02. 19:00 5.6° C wolkig
Sa, 27.02. 13:00 5.8° C bedeckt
Sa, 27.02. 7:00 5.0° C bedeckt
Ortszeit Temperatur Wetter
Mo, 01.03. 4:30 4.2° C bedeckt
Mo, 01.03. 4:20 4.2° C bedeckt
Mo, 01.03. 4:10 4.3° C bedeckt
Mo, 01.03. 4:00 4.4° C bedeckt
Mo, 01.03. 3:50 4.4° C bedeckt
Mo, 01.03. 3:40 4.3° C bedeckt
Mo, 01.03. 3:30 4.4° C bedeckt
Mo, 01.03. 3:00 4.5° C bedeckt
Ortszeit Relative Feuchte Sichtweite
Mo, 01.03. 1:00 91% 21 km
So, 28.02. 19:00 88% 9 km
So, 28.02. 13:00 89% 19 km
So, 28.02. 7:00 99% 1.2 km
So, 28.02. 1:00 98% 6 km
Sa, 27.02. 19:00 81% 65 km
Sa, 27.02. 13:00 79% 35 km
Sa, 27.02. 7:00 87% 14 km
Ortszeit Relative Feuchte Sichtweite
Mo, 01.03. 4:30 95% 9 km
Mo, 01.03. 4:20 95% -
Mo, 01.03. 4:10 93% -
Mo, 01.03. 4:00 93% 17 km
Mo, 01.03. 3:50 93% -
Mo, 01.03. 3:40 93% -
Mo, 01.03. 3:30 93% 16 km
Mo, 01.03. 3:00 92% 16 km
Ortszeit Niederschlagsmenge Niederschlagsart
Mo, 01.03. 1:00 0.0 l/m2 in 6 Std. -
So, 28.02. 19:00 0.1 l/m2 in 12 Std. -
So, 28.02. 13:00 0.1 l/m2 in 6 Std. Sprühregen
So, 28.02. 7:00 0.0 l/m2 in 12 Std. -
So, 28.02. 1:00 0.0 l/m2 in 6 Std. -
Sa, 27.02. 19:00 0.1 l/m2 in 12 Std. -
Sa, 27.02. 13:00 0.1 l/m2 in 6 Std. Sprühregen
Sa, 27.02. 7:00 0.1 l/m2 in 12 Std. Sprühregen
Ortszeit Niederschlagsmenge Niederschlagsart
Mo, 01.03. 4:30 0.0 l/m2 in 1 Std. -
Mo, 01.03. 4:20 keine Meldung -
Mo, 01.03. 4:10 keine Meldung -
Mo, 01.03. 4:00 0.0 l/m2 in 1 Std. -
Mo, 01.03. 3:50 keine Meldung -
Mo, 01.03. 3:40 keine Meldung -
Mo, 01.03. 3:30 0.0 l/m2 in 1 Std. -
Mo, 01.03. 3:00 0.0 l/m2 in 1 Std. -
Ortszeit Stärke Spitze Richtung
km/h Bft. km/h Grad Sektor
Mo, 01.03. 1:00 6 1 11 250° W
So, 28.02. 19:00 6 1 15 230° SW
So, 28.02. 13:00 4 1 18 310° NW
So, 28.02. 7:00 4 1 18 280° W
So, 28.02. 1:00 6 1 11 220° SW
Sa, 27.02. 19:00 4 1 22 250° W
Sa, 27.02. 13:00 14 3 29 330° NW
Sa, 27.02. 7:00 9 2 30 320° NW
Ortszeit Stärke Spitze Richtung
km/h Bft. km/h Grad Sektor
Mo, 01.03. 4:30 4 1 7 220° SW
Mo, 01.03. 4:20 4 1 - 220° SW
Mo, 01.03. 4:10 4 1 - 190° S
Mo, 01.03. 4:00 4 1 7 180° S
Mo, 01.03. 3:50 4 1 - 180° S
Mo, 01.03. 3:40 4 1 - 190° S
Mo, 01.03. 3:30 4 1 7 190° S
Mo, 01.03. 3:00 2 1 4 190° S
Ortszeit Untergrenze Bedeckung Gattung
total tief tief mittel hoch
Mo, 01.03. 1:00 510 m 8/8 8/8 - - -
So, 28.02. 19:00 480 m 2/8 2/8 - - -
So, 28.02. 13:00 210 m 8/8 8/8 - - -
So, 28.02. 7:00 30 m 8/8 8/8 - - -
So, 28.02. 1:00 - 0/8 0/8 - - -
Sa, 27.02. 19:00 690 m 6/8 6/8 - - -
Sa, 27.02. 13:00 420 m 8/8 8/8 - - -
Sa, 27.02. 7:00 330 m 8/8 8/8 - - -
Ortszeit Bedeckungsgrad in Achtel und Wolkenuntergrenze
Mo, 01.03. 4:30 7(150m) 8(450m)
Mo, 01.03. 4:20 7(150m) 8(450m)
Mo, 01.03. 4:10 8(150m) 8(480m)
Mo, 01.03. 4:00 8(150m) 8(480m)
Mo, 01.03. 3:50 8(150m) 8(480m)
Mo, 01.03. 3:40 7(150m) 8(450m)
Mo, 01.03. 3:30 7(150m) 8(450m)
Mo, 01.03. 3:00 7(150m) 8(480m)
Ortszeit Luftdruck NN (hPa) Tendenz (hPa in 3 Std.)
Mo, 01.03. 1:00 1036 - 0,4
So, 28.02. 19:00 1036 - 0,4
So, 28.02. 13:00 1038 + 0,2
So, 28.02. 7:00 1038 - 0,2
So, 28.02. 1:00 1039 - 0,4
Sa, 27.02. 19:00 1039 + 0,1
Sa, 27.02. 13:00 1039 + 1,1
Sa, 27.02. 7:00 1036 + 1,2
Ortszeit Luftdruck NN (hPa) Tendenz (hPa in 3 Std.)
Mo, 01.03. 4:30 1036 - 0,1
Mo, 01.03. 4:20 1036 keine Meldung
Mo, 01.03. 4:10 1036 keine Meldung
Mo, 01.03. 4:00 1036 - 0,1
Mo, 01.03. 3:50 1036 keine Meldung
Mo, 01.03. 3:40 1036 keine Meldung
Mo, 01.03. 3:30 1036 - 0,2
Mo, 01.03. 3:00 1036 - 0,4
Ortszeit Schneehöhe (cm)
Mo, 01.03. 1:00 0
So, 28.02. 19:00 0
So, 28.02. 13:00 0
So, 28.02. 7:00 0
So, 28.02. 1:00 0
Sa, 27.02. 19:00 0
Sa, 27.02. 13:00 0
Sa, 27.02. 7:00 0
Ortszeit Schneehöhe (cm)
Mo, 01.03. 4:30 0
Mo, 01.03. 4:20 0
Mo, 01.03. 4:10 0
Mo, 01.03. 4:00 0
Mo, 01.03. 3:50 0
Mo, 01.03. 3:40 0
Mo, 01.03. 3:30 0
Mo, 01.03. 3:00 0
Link zu dieser Seite / Seite empfehlen

Das Wetter in ...